Time;durP1;ratioP1;P1;durP2;ratioP2;P2;SDS_P1;SDS_P2;PMS_P1;PMS_P2;Temp;Humidity;BMP_temperature;BMP_pressure;BME280_temperature;BME280_humidity;BME280_pressure;Samples;Min_cycle;Max_cycle;Signal;HPM_P1;HPM_P2
2021/01/05 00:01:31;;;;;;;27.53;25.73;;;3.00;1.00;;;;;;5015901;28;20199;-71
2021/01/05 00:03:57;;;;;;;30.67;28.57;;;3.00;1.00;;;;;;5015534;28;20224;-71
2021/01/05 00:06:22;;;;;;;20.83;19.23;;;3.00;1.00;;;;;;5015316;28;20262;-71
2021/01/05 00:08:48;;;;;;;30.07;27.90;;;3.10;1.00;;;;;;5015253;28;20218;-71
2021/01/05 00:11:14;;;;;;;28.07;26.40;;;3.00;1.00;;;;;;5015506;28;20175;-71
2021/01/05 00:13:39;;;;;;;32.73;30.83;;;3.00;1.00;;;;;;5015495;28;20660;-71
2021/01/05 00:16:05;;;;;;;26.30;24.50;;;3.00;1.00;;;;;;5015296;28;20175;-71
2021/01/05 00:18:31;;;;;;;28.30;26.58;;;3.00;1.00;;;;;;5015243;28;20202;-71
2021/01/05 00:20:56;;;;;;;29.40;27.70;;;3.00;1.00;;;;;;5015156;28;20167;-71
2021/01/05 00:23:22;;;;;;;29.30;27.80;;;3.00;1.00;;;;;;5047075;28;20175;-71
2021/01/05 00:25:47;;;;;;;28.23;26.63;;;3.00;1.00;;;;;;5015084;28;20175;-70
2021/01/05 00:28:13;;;;;;;27.53;26.03;;;3.00;1.00;;;;;;5015166;28;20191;-71
2021/01/05 00:30:39;;;;;;;35.07;33.37;;;3.00;1.00;;;;;;5015403;28;20258;-71
2021/01/05 00:33:06;;;;;;;29.67;28.07;;;3.00;1.00;;;;;;5014980;28;20242;-71
2021/01/05 00:35:35;;;;;;;28.35;26.67;;;3.00;1.00;;;;;;5046619;28;20410;-71
2021/01/05 00:38:05;;;;;;;26.38;24.58;;;3.00;1.00;;;;;;5014931;28;20194;-71
2021/01/05 00:40:30;;;;;;;21.45;20.05;;;3.00;1.00;;;;;;5014747;28;20209;-71
2021/01/05 00:42:56;;;;;;;26.43;25.03;;;2.90;1.00;;;;;;5014739;28;20222;-71
2021/01/05 00:45:26;;;;;;;27.40;25.90;;;3.00;1.00;;;;;;5014021;28;20182;-71
2021/01/05 00:47:52;;;;;;;26.48;25.08;;;2.90;1.00;;;;;;5014534;28;20199;-70
2021/01/05 00:50:17;;;;;;;25.87;24.27;;;3.00;1.00;;;;;;5014834;28;20182;-71
2021/01/05 00:52:43;;;;;;;19.60;18.20;;;3.00;1.00;;;;;;5014825;28;20206;-71
2021/01/05 00:55:09;;;;;;;21.30;20.10;;;3.00;1.00;;;;;;5014689;28;20182;-71
2021/01/05 00:57:35;;;;;;;20.45;19.35;;;3.10;1.00;;;;;;5014304;28;20199;-71
2021/01/05 01:00:03;;;;;;;21.23;20.10;;;3.00;1.00;;;;;;5046546;28;20179;-71
2021/01/05 01:02:29;;;;;;;27.88;26.58;;;3.10;1.00;;;;;;5014508;28;20203;-71
2021/01/05 01:04:54;;;;;;;31.60;29.97;;;3.10;1.00;;;;;;5014512;28;20237;-71
2021/01/05 01:07:20;;;;;;;30.83;29.23;;;3.10;1.00;;;;;;5014146;28;20253;-71
2021/01/05 01:09:46;;;;;;;25.27;23.90;;;3.10;1.00;;;;;;5014297;28;20234;-71
2021/01/05 01:12:23;;;;;;;25.10;23.80;;;3.00;1.00;;;;;;5013046;28;20626;-71
2021/01/05 01:14:51;;;;;;;28.33;27.02;;;3.10;1.00;;;;;;5014521;28;20562;-71
2021/01/05 01:17:20;;;;;;;30.40;29.00;;;3.10;1.00;;;;;;5014065;28;20222;-71
2021/01/05 01:19:45;;;;;;;23.55;22.25;;;3.10;1.00;;;;;;5014175;28;20688;-71
2021/01/05 01:22:11;;;;;;;25.57;24.37;;;3.10;1.00;;;;;;5014207;28;20207;-71
2021/01/05 01:24:37;;;;;;;24.73;23.43;;;3.10;1.00;;;;;;5014294;28;20167;-70
2021/01/05 01:27:03;;;;;;;24.30;22.90;;;3.10;1.00;;;;;;5013825;28;20644;-71
2021/01/05 01:29:29;;;;;;;23.17;22.08;;;3.10;1.00;;;;;;5014022;28;20175;-71
2021/01/05 01:31:56;;;;;;;25.30;23.90;;;3.20;1.00;;;;;;5014577;28;20175;-71
2021/01/05 01:34:25;;;;;;;21.92;20.73;;;3.10;1.00;;;;;;5014136;28;20529;-71
2021/01/05 01:37:06;;;;;;;23.50;22.20;;;3.20;1.00;;;;;;5013778;28;20640;-71
2021/01/05 01:39:32;;;;;;;26.48;24.95;;;3.10;1.00;;;;;;5014108;28;20657;-71
2021/01/05 01:42:01;;;;;;;22.48;21.17;;;3.10;1.00;;;;;;5013871;28;20203;-71
2021/01/05 01:44:30;;;;;;;24.65;23.35;;;3.10;1.00;;;;;;5045520;28;20232;-71
2021/01/05 01:47:17;;;;;;;24.60;23.13;;;3.10;1.00;;;;;;5013534;28;20532;-70
2021/01/05 01:49:48;;;;;;;20.40;19.13;;;3.10;1.00;;;;;;5014171;28;20648;-71
2021/01/05 01:52:20;;;;;;;19.90;18.75;;;3.10;1.00;;;;;;5013991;28;20625;-71
2021/01/05 01:54:46;;;;;;;19.40;18.20;;;3.10;1.00;;;;;;5013765;28;20178;-71
2021/01/05 01:57:44;;;;;;;18.90;17.77;;;3.10;1.00;;;;;;5045384;28;20175;-71
2021/01/05 02:00:31;;;;;;;25.30;23.80;;;3.20;1.00;;;;;;5013513;28;20195;-71
2021/01/05 02:03:30;;;;;;;25.88;24.52;;;3.30;1.00;;;;;;5013675;28;20206;-71
2021/01/05 02:06:28;;;;;;;25.90;24.48;;;3.20;1.00;;;;;;5013608;28;20190;-70
2021/01/05 02:09:05;;;;;;;28.63;27.02;;;3.30;1.00;;;;;;5013473;28;20203;-70
2021/01/05 02:11:59;;;;;;;23.13;21.73;;;3.30;1.00;;;;;;5013963;28;20205;-71
2021/01/05 02:14:59;;;;;;;30.85;29.15;;;3.30;1.00;;;;;;5013452;28;20633;-71
2021/01/05 02:17:50;;;;;;;26.25;24.85;;;3.20;1.00;;;;;;5013313;28;20194;-71
2021/01/05 02:20:21;;;;;;;29.85;28.15;;;3.20;1.00;;;;;;5013531;28;20187;-71
2021/01/05 02:23:06;;;;;;;27.50;25.92;;;3.30;1.00;;;;;;5013609;28;20187;-71
2021/01/05 02:25:44;;;;;;;27.30;25.60;;;3.30;1.00;;;;;;5013488;28;20689;-71
2021/01/05 02:28:12;;;;;;;22.80;21.48;;;3.30;1.00;;;;;;5013466;28;20701;-71
2021/01/05 02:30:42;;;;;;;26.55;25.15;;;3.40;1.00;;;;;;5013475;28;20221;-71
2021/01/05 02:33:24;;;;;;;26.80;25.40;;;3.40;1.00;;;;;;5013526;28;20175;-71
2021/01/05 02:35:56;;;;;;;23.20;21.80;;;3.30;1.00;;;;;;5045073;28;20171;-71
2021/01/05 02:38:52;;;;;;;22.17;20.90;;;3.30;1.00;;;;;;5013493;28;20187;-71
2021/01/05 02:41:39;;;;;;;22.00;20.60;;;3.30;1.00;;;;;;5013430;28;20175;-71
2021/01/05 02:44:17;;;;;;;23.60;22.35;;;3.20;1.00;;;;;;5013704;28;20258;-71
2021/01/05 02:46:51;;;;;;;23.77;22.38;;;3.30;1.00;;;;;;5013353;28;20167;-71
2021/01/05 02:49:39;;;;;;;24.73;23.33;;;3.30;1.00;;;;;;5013165;28;20191;-71
2021/01/05 02:52:35;;;;;;;22.80;21.60;;;3.20;1.00;;;;;;5013487;28;20269;-71
2021/01/05 02:55:25;;;;;;;29.08;27.67;;;3.30;1.00;;;;;;5013418;28;20175;-71
2021/01/05 02:58:33;;;;;;;28.83;27.42;;;3.30;1.00;;;;;;5013134;28;20601;-70
2021/01/05 03:01:25;;;;;;;24.98;23.65;;;3.30;1.00;;;;;;5013287;28;20267;-71
2021/01/05 03:03:51;;;;;;;22.02;20.92;;;3.20;1.00;;;;;;5013372;28;20633;-71
2021/01/05 03:06:16;;;;;;;22.13;20.90;;;3.30;1.00;;;;;;5012986;28;20182;-71
2021/01/05 03:09:20;;;;;;;21.47;20.17;;;3.30;1.00;;;;;;5047304;28;20548;-71
2021/01/05 03:11:45;;;;;;;19.65;18.15;;;3.40;1.00;;;;;;5014114;28;20186;-71
2021/01/05 03:14:32;;;;;;;17.10;16.00;;;3.30;1.00;;;;;;5016561;28;20194;-71
2021/01/05 03:17:10;;;;;;;18.80;17.70;;;3.30;1.00;;;;;;5016148;28;20173;-71
2021/01/05 03:19:46;;;;;;;22.33;21.02;;;3.40;1.00;;;;;;5016545;28;20195;-71
2021/01/05 03:22:16;;;;;;;18.23;17.02;;;3.40;1.00;;;;;;5016496;28;20526;-71
2021/01/05 03:24:41;;;;;;;19.80;18.70;;;3.40;1.00;;;;;;5016498;28;20167;-71
2021/01/05 03:27:09;;;;;;;27.13;25.80;;;3.40;1.00;;;;;;5015968;28;20186;-71
2021/01/05 03:29:35;;;;;;;28.10;26.60;;;3.40;1.00;;;;;;5016383;28;20171;-71
2021/01/05 03:32:07;;;;;;;27.60;26.20;;;3.40;1.00;;;;;;5016137;28;20175;-71
2021/01/05 03:34:33;;;;;;;30.20;28.80;;;3.40;1.00;;;;;;5016301;28;20171;-71
2021/01/05 03:36:58;;;;;;;22.47;21.23;;;3.40;1.00;;;;;;5015920;28;20614;-71
2021/01/05 03:39:24;;;;;;;29.17;27.57;;;3.40;1.00;;;;;;5015988;28;20189;-71
2021/01/05 03:41:50;;;;;;;29.67;28.00;;;3.50;1.00;;;;;;5015989;28;20199;-71
2021/01/05 03:44:16;;;;;;;25.50;24.00;;;3.40;1.00;;;;;;5015865;28;20175;-71
2021/01/05 03:46:41;;;;;;;23.30;22.00;;;3.40;1.00;;;;;;5015748;28;20405;-71
2021/01/05 03:49:07;;;;;;;19.60;18.53;;;3.40;1.00;;;;;;5015796;28;20650;-71
2021/01/05 03:51:32;;;;;;;17.83;16.83;;;3.30;1.00;;;;;;5015913;28;20171;-71
2021/01/05 03:53:58;;;;;;;22.80;21.60;;;3.30;1.00;;;;;;5015896;28;20175;-71
2021/01/05 03:56:24;;;;;;;23.40;22.30;;;3.30;1.00;;;;;;5015547;28;20177;-71
2021/01/05 03:58:49;;;;;;;25.10;23.90;;;3.30;1.00;;;;;;5015549;28;20228;-70
2021/01/05 04:01:15;;;;;;;21.10;20.10;;;3.30;1.00;;;;;;5015507;28;20509;-71
2021/01/05 04:03:41;;;;;;;22.77;21.40;;;3.30;1.00;;;;;;5015940;28;20178;-71
2021/01/05 04:06:07;;;;;;;25.48;24.27;;;3.40;1.00;;;;;;5047279;28;20171;-71
2021/01/05 04:08:33;;;;;;;23.92;22.52;;;3.40;1.00;;;;;;5015202;28;20214;-71
2021/01/05 04:10:58;;;;;;;23.37;22.07;;;3.40;1.00;;;;;;5015344;28;20257;-71
2021/01/05 04:13:24;;;;;;;25.07;23.50;;;3.40;1.00;;;;;;5015326;28;20186;-71
2021/01/05 04:15:50;;;;;;;26.70;25.30;;;3.50;1.00;;;;;;5015145;28;20178;-71
2021/01/05 04:18:16;;;;;;;28.07;26.67;;;3.50;1.00;;;;;;5014911;28;20226;-71
2021/01/05 04:20:41;;;;;;;29.47;27.83;;;3.50;1.00;;;;;;5015354;28;20203;-71
2021/01/05 04:23:07;;;;;;;29.10;27.80;;;3.60;1.00;;;;;;5015231;28;20496;-71
2021/01/05 04:25:33;;;;;;;25.33;24.10;;;3.60;1.00;;;;;;5046933;28;20512;-71
2021/01/05 04:27:58;;;;;;;26.57;25.43;;;3.60;1.00;;;;;;5015165;28;20246;-70
2021/01/05 04:30:30;;;;;;;19.43;18.40;;;3.50;1.00;;;;;;5015092;28;20176;-70
2021/01/05 04:32:59;;;;;;;19.58;18.67;;;3.50;1.00;;;;;;5015212;28;20267;-71
2021/01/05 04:35:25;;;;;;;21.45;20.58;;;3.60;1.00;;;;;;5015021;28;20195;-71
2021/01/05 04:37:52;;;;;;;19.30;18.30;;;3.50;1.00;;;;;;5014799;28;20202;-71
2021/01/05 04:40:29;;;;;;;15.40;14.57;;;3.50;1.00;;;;;;5015080;28;20594;-71
2021/01/05 04:43:22;;;;;;;18.25;17.42;;;3.40;1.00;;;;;;5015009;28;20624;-71
2021/01/05 04:46:15;;;;;;;23.48;22.38;;;3.40;1.00;;;;;;5014636;28;20171;-71
2021/01/05 04:48:42;;;;;;;24.77;23.67;;;3.30;1.00;;;;;;5046488;28;20222;-71
2021/01/05 04:51:19;;;;;;;23.77;22.75;;;3.30;1.00;;;;;;5014669;28;20172;-71
2021/01/05 04:54:10;;;;;;;25.02;23.83;;;3.20;1.00;;;;;;5015043;28;20170;-71
2021/01/05 04:57:05;;;;;;;23.55;22.55;;;3.20;1.00;;;;;;5010466;28;20187;-70
2021/01/05 04:59:57;;;;;;;22.63;21.73;;;3.10;1.00;;;;;;5014731;28;20159;-71
2021/01/05 05:02:54;;;;;;;32.55;31.17;;;3.10;1.00;;;;;;5011523;28;20269;-71
2021/01/05 05:05:49;;;;;;;36.42;35.00;;;3.10;1.00;;;;;;5005475;28;20211;-71
2021/01/05 05:08:30;;;;;;;30.17;29.00;;;3.00;1.00;;;;;;5014269;28;20683;-71
2021/01/05 05:11:05;;;;;;;29.17;28.00;;;3.00;1.00;;;;;;5014625;28;20171;-71
2021/01/05 05:13:53;;;;;;;22.25;21.25;;;3.00;1.00;;;;;;5014469;28;20201;-71
2021/01/05 05:16:44;;;;;;;27.65;26.55;;;3.00;1.00;;;;;;5014097;28;20177;-71
2021/01/05 05:19:19;;;;;;;22.88;21.77;;;3.00;1.00;;;;;;5014205;28;20198;-71
2021/01/05 05:21:53;;;;;;;24.15;23.05;;;3.00;1.00;;;;;;5014323;28;20645;-70
2021/01/05 05:24:43;;;;;;;26.25;25.10;;;3.00;1.00;;;;;;5013918;28;20632;-71
2021/01/05 05:27:14;;;;;;;27.85;26.65;;;3.10;1.00;;;;;;5013970;28;20184;-71
2021/01/05 05:29:53;;;;;;;23.33;22.33;;;3.10;1.00;;;;;;5013603;28;20175;-71
2021/01/05 05:32:58;;;;;;;20.70;19.60;;;3.10;1.00;;;;;;5014174;28;20171;-71
2021/01/05 05:35:36;;;;;;;19.63;18.52;;;3.10;1.00;;;;;;5009364;28;20249;-70
2021/01/05 05:38:11;;;;;;;20.05;19.15;;;3.10;1.00;;;;;;5014014;28;20198;-71
2021/01/05 05:41:00;;;;;;;18.65;17.73;;;3.20;1.00;;;;;;5014148;28;20167;-71
2021/01/05 05:44:18;;;;;;;24.33;23.23;;;3.20;1.00;;;;;;5003164;28;20218;-71
2021/01/05 05:47:08;;;;;;;20.98;19.88;;;3.20;1.00;;;;;;5002111;28;20183;-71
2021/01/05 05:49:48;;;;;;;23.02;21.83;;;3.10;1.00;;;;;;5014012;28;20159;-71
2021/01/05 05:52:31;;;;;;;20.67;19.65;;;3.10;1.00;;;;;;5013847;28;20167;-71
2021/01/05 05:54:59;;;;;;;24.23;22.85;;;3.10;1.00;;;;;;5014008;28;20172;-71
2021/01/05 05:57:43;;;;;;;20.58;19.30;;;3.00;1.00;;;;;;5013536;28;20202;-71
2021/01/05 06:00:39;;;;;;;18.85;17.75;;;3.00;1.00;;;;;;5013732;28;20168;-71
2021/01/05 06:03:06;;;;;;;22.65;21.27;;;3.00;1.00;;;;;;5009038;28;20673;-71
2021/01/05 06:05:37;;;;;;;21.40;20.00;;;3.10;1.00;;;;;;5013411;28;20633;-71
2021/01/05 06:08:06;;;;;;;25.52;23.05;;;3.10;1.00;;;;;;5013431;28;20226;-71
2021/01/05 06:10:32;;;;;;;28.67;27.13;;;3.10;1.00;;;;;;5013626;28;20179;-71
2021/01/05 06:12:58;;;;;;;21.37;20.20;;;3.20;1.00;;;;;;5013656;28;20213;-71
2021/01/05 06:15:24;;;;;;;20.10;18.90;;;3.20;1.00;;;;;;5013764;28;20171;-70
2021/01/05 06:17:50;;;;;;;19.90;18.75;;;3.10;1.00;;;;;;5013416;28;20217;-70
2021/01/05 06:20:17;;;;;;;21.08;19.77;;;3.10;1.00;;;;;;5013447;28;20173;-70
2021/01/05 06:22:42;;;;;;;23.55;22.13;;;3.10;1.00;;;;;;5013683;28;20285;-71
2021/01/05 06:25:09;;;;;;;22.83;21.63;;;3.20;1.00;;;;;;5013532;28;20199;-71
2021/01/05 06:27:35;;;;;;;26.98;25.38;;;3.10;1.00;;;;;;5045114;28;20245;-71
2021/01/05 06:30:01;;;;;;;30.20;28.37;;;3.10;1.00;;;;;;5013376;28;20580;-71
2021/01/05 06:32:27;;;;;;;25.37;24.00;;;3.20;1.00;;;;;;5045311;28;20202;-71
2021/01/05 06:34:52;;;;;;;26.07;24.17;;;3.20;1.00;;;;;;5013395;28;20209;-71
2021/01/05 06:37:18;;;;;;;25.13;23.63;;;3.20;1.00;;;;;;5013206;28;20191;-71
2021/01/05 06:39:43;;;;;;;30.60;28.73;;;3.10;1.00;;;;;;5013307;28;20198;-71
2021/01/05 06:42:10;;;;;;;25.30;23.80;;;3.10;1.00;;;;;;5015416;28;20193;-71
2021/01/05 06:44:35;;;;;;;27.38;25.42;;;3.20;1.00;;;;;;5017125;28;20175;-71
2021/01/05 06:47:01;;;;;;;29.27;27.47;;;3.20;1.00;;;;;;5048655;28;20666;-71
2021/01/05 06:49:28;;;;;;;22.20;20.50;;;3.20;1.00;;;;;;5016883;28;20164;-71
2021/01/05 06:51:54;;;;;;;34.25;32.35;;;3.20;1.00;;;;;;5016908;28;20233;-71
2021/01/05 06:54:20;;;;;;;31.10;29.23;;;3.10;1.00;;;;;;5016889;28;20258;-71
2021/01/05 06:56:53;;;;;;;29.23;27.48;;;3.20;1.00;;;;;;5016834;28;20183;-71
2021/01/05 06:59:20;;;;;;;28.45;25.90;;;3.20;1.00;;;;;;5016723;28;20202;-71
2021/01/05 07:02:06;;;;;;;23.33;21.63;;;3.20;1.00;;;;;;5016796;28;20281;-71
2021/01/05 07:04:32;;;;;;;23.40;21.63;;;3.20;1.00;;;;;;5016556;28;20206;-71
2021/01/05 07:06:59;;;;;;;28.10;26.10;;;3.20;1.00;;;;;;5016276;28;20182;-71
2021/01/05 07:09:25;;;;;;;23.90;22.40;;;3.30;1.00;;;;;;5016745;28;20260;-71
2021/01/05 07:11:51;;;;;;;26.33;24.33;;;3.20;1.00;;;;;;5016699;28;20641;-71
2021/01/05 07:14:21;;;;;;;22.48;20.67;;;3.20;1.00;;;;;;5016664;28;20195;-71
2021/01/05 07:16:47;;;;;;;30.17;28.13;;;3.20;1.00;;;;;;5016789;28;20183;-70
2021/01/05 07:19:13;;;;;;;27.73;25.48;;;3.20;1.00;;;;;;5016310;28;20535;-71
2021/01/05 07:21:39;;;;;;;29.23;26.92;;;3.20;1.00;;;;;;5016331;28;20199;-71
2021/01/05 07:24:05;;;;;;;30.97;29.00;;;3.20;1.00;;;;;;5016416;28;20175;-71
2021/01/05 07:26:35;;;;;;;28.58;26.45;;;3.20;1.00;;;;;;5016034;28;20177;-71
2021/01/05 07:29:01;;;;;;;24.58;22.75;;;3.20;1.00;;;;;;5048094;28;20687;-71
2021/01/05 07:31:27;;;;;;;32.27;29.90;;;3.30;1.00;;;;;;5016398;28;20171;-71
2021/01/05 07:33:53;;;;;;;30.80;28.77;;;3.20;1.00;;;;;;5047968;28;20472;-71
2021/01/05 07:36:34;;;;;;;31.80;29.57;;;3.20;1.00;;;;;;5015890;28;20586;-70
2021/01/05 07:39:00;;;;;;;34.00;31.80;;;3.20;1.00;;;;;;5016038;28;20183;-71
2021/01/05 07:41:25;;;;;;;33.03;30.53;;;3.30;1.00;;;;;;5016046;28;20189;-71
2021/01/05 07:43:51;;;;;;;36.53;34.13;;;3.30;1.00;;;;;;5047793;28;20171;-71
2021/01/05 07:46:17;;;;;;;30.60;28.33;;;3.30;1.00;;;;;;5015779;28;20174;-71
2021/01/05 07:48:43;;;;;;;30.93;28.73;;;3.30;1.00;;;;;;5015933;28;20298;-71
2021/01/05 07:51:10;;;;;;;31.40;29.33;;;3.30;1.00;;;;;;5015924;28;20171;-71
2021/01/05 07:53:36;;;;;;;30.02;27.63;;;3.30;1.00;;;;;;5015042;28;20182;-71
2021/01/05 07:56:02;;;;;;;34.88;32.25;;;3.40;1.00;;;;;;5042450;28;20184;-71
2021/01/05 07:58:28;;;;;;;31.55;29.20;;;3.40;1.00;;;;;;5008712;28;20210;-71
2021/01/05 08:00:53;;;;;;;31.47;29.00;;;3.40;1.00;;;;;;5015838;28;20529;-71
2021/01/05 08:03:19;;;;;;;41.27;38.67;;;3.40;1.00;;;;;;5015551;28;20202;-71
2021/01/05 08:05:45;;;;;;;34.87;32.27;;;3.40;1.00;;;;;;5015637;28;20310;-71
2021/01/05 08:08:11;;;;;;;36.80;34.17;;;3.40;1.00;;;;;;5015194;28;20207;-70
2021/01/05 08:10:39;;;;;;;34.42;32.00;;;3.40;1.00;;;;;;5015506;28;20410;-70
2021/01/05 08:13:07;;;;;;;35.65;33.15;;;3.40;1.00;;;;;;5015646;28;20187;-71
2021/01/05 08:15:33;;;;;;;36.28;33.97;;;3.40;1.00;;;;;;5015429;28;20171;-72
2021/01/05 08:17:59;;;;;;;30.27;28.30;;;3.30;1.00;;;;;;5015724;28;20191;-70
2021/01/05 08:20:28;;;;;;;32.30;29.42;;;3.30;1.00;;;;;;5015700;28;20210;-70
2021/01/05 08:22:54;;;;;;;35.20;32.67;;;3.40;1.00;;;;;;5015571;28;20201;-70
2021/01/05 08:25:21;;;;;;;29.15;26.85;;;3.40;1.00;;;;;;5015824;28;20171;-71
2021/01/05 08:27:48;;;;;;;32.03;29.75;;;3.30;1.00;;;;;;5015081;28;20198;-71
2021/01/05 08:30:35;;;;;;;34.35;32.08;;;3.30;1.00;;;;;;5015332;28;20696;-71
2021/01/05 08:33:06;;;;;;;33.42;30.77;;;3.40;1.00;;;;;;5015650;28;20198;-70
2021/01/05 08:35:33;;;;;;;33.03;30.52;;;3.40;1.00;;;;;;5015125;28;20206;-71
2021/01/05 08:37:59;;;;;;;33.28;30.60;;;3.40;1.00;;;;;;5015090;28;20284;-71
2021/01/05 08:40:27;;;;;;;31.10;28.83;;;3.50;1.00;;;;;;5015265;28;20254;-71
2021/01/05 08:42:55;;;;;;;32.28;29.58;;;3.50;1.00;;;;;;5015092;28;20549;-70
2021/01/05 08:45:20;;;;;;;30.92;28.63;;;3.40;1.00;;;;;;5014792;28;20545;-71
2021/01/05 08:47:47;;;;;;;32.70;30.47;;;3.40;1.00;;;;;;5014843;28;20250;-70
2021/01/05 08:50:28;;;;;;;35.97;33.55;;;3.40;1.00;;;;;;5015068;28;20171;-71
2021/01/05 08:52:55;;;;;;;36.65;34.17;;;3.40;1.00;;;;;;5013606;28;20644;-70
2021/01/05 08:55:21;;;;;;;34.20;32.05;;;3.40;1.00;;;;;;5015216;28;20213;-70
2021/01/05 08:57:46;;;;;;;28.47;26.57;;;3.30;1.00;;;;;;5014607;28;20195;-70
2021/01/05 09:00:13;;;;;;;29.73;27.83;;;3.30;1.00;;;;;;5015118;28;20486;-70
2021/01/05 09:02:38;;;;;;;30.00;28.00;;;3.20;1.00;;;;;;5014781;28;20256;-71
2021/01/05 09:05:05;;;;;;;25.17;23.53;;;3.20;1.00;;;;;;5013668;28;20262;-71
2021/01/05 09:07:30;;;;;;;29.77;27.88;;;3.20;1.00;;;;;;5014055;28;20669;-70
2021/01/05 09:09:56;;;;;;;30.83;28.73;;;3.20;1.00;;;;;;5014374;28;20186;-70
2021/01/05 09:12:21;;;;;;;36.53;34.30;;;3.20;1.00;;;;;;5014714;28;20629;-71
2021/01/05 09:14:47;;;;;;;33.60;31.20;;;3.20;1.00;;;;;;5014830;28;20226;-71
2021/01/05 09:17:13;;;;;;;33.50;31.00;;;3.30;1.00;;;;;;5014019;28;20530;-71
2021/01/05 09:19:39;;;;;;;34.45;32.15;;;3.30;1.00;;;;;;5014494;28;20183;-71
2021/01/05 09:22:05;;;;;;;33.10;30.85;;;3.30;1.00;;;;;;5013047;28;20211;-70
2021/01/05 09:24:31;;;;;;;38.57;36.17;;;3.30;1.00;;;;;;5013228;28;20167;-71
2021/01/05 09:26:57;;;;;;;39.80;37.53;;;3.40;1.00;;;;;;5014385;28;20402;-71
2021/01/05 09:29:24;;;;;;;39.57;37.27;;;3.50;1.00;;;;;;5014842;28;20528;-71
2021/01/05 09:31:51;;;;;;;30.42;28.52;;;3.50;1.00;;;;;;5014710;28;20915;-71
2021/01/05 09:34:19;;;;;;;33.60;31.50;;;3.60;1.00;;;;;;5014081;28;20186;-71
2021/01/05 09:36:45;;;;;;;32.42;30.33;;;3.60;1.00;;;;;;5014176;28;20206;-71
2021/01/05 09:39:14;;;;;;;38.23;35.70;;;3.60;1.00;;;;;;5014222;28;20199;-71
2021/01/05 09:41:47;;;;;;;34.95;32.55;;;3.60;1.00;;;;;;5014298;28;20190;-71
2021/01/05 09:44:13;;;;;;;34.78;32.58;;;3.60;1.00;;;;;;5014255;28;20699;-71
2021/01/05 09:46:40;;;;;;;32.77;30.73;;;3.60;1.00;;;;;;5013976;28;20179;-71
2021/01/05 09:49:13;;;;;;;31.70;29.65;;;3.60;1.00;;;;;;5013917;28;20537;-71
2021/01/05 09:51:39;;;;;;;34.72;32.53;;;3.70;1.00;;;;;;5014116;28;20644;-71
2021/01/05 09:54:05;;;;;;;33.23;31.13;;;3.60;1.00;;;;;;5012820;28;20189;-71
2021/01/05 09:56:30;;;;;;;33.08;31.08;;;3.60;1.00;;;;;;5012904;28;20422;-71
2021/01/05 09:58:56;;;;;;;36.10;33.77;;;3.70;1.00;;;;;;5014336;28;20201;-71
2021/01/05 10:01:30;;;;;;;42.80;40.47;;;3.60;1.00;;;;;;5013798;28;20167;-71
2021/01/05 10:03:56;;;;;;;34.10;31.73;;;3.70;1.00;;;;;;5013986;28;20166;-71
2021/01/05 10:06:31;;;;;;;32.63;30.40;;;3.60;1.00;;;;;;5012355;28;20659;-71
2021/01/05 10:08:57;;;;;;;30.70;28.65;;;3.60;1.00;;;;;;5014051;28;20759;-71
2021/01/05 10:11:30;;;;;;;28.10;26.00;;;3.60;1.00;;;;;;5012960;28;20257;-71
2021/01/05 10:13:55;;;;;;;35.28;32.92;;;3.60;1.00;;;;;;5013776;28;20660;-71
2021/01/05 10:16:21;;;;;;;34.07;31.97;;;3.60;1.00;;;;;;5013200;28;20218;-71
2021/01/05 10:18:46;;;;;;;36.23;34.00;;;3.60;1.00;;;;;;5017896;28;20197;-71
2021/01/05 10:21:12;;;;;;;34.57;32.27;;;3.60;1.00;;;;;;5017978;28;20175;-71
2021/01/05 10:23:37;;;;;;;42.53;40.03;;;3.70;1.00;;;;;;5017155;28;20199;-71
2021/01/05 10:26:03;;;;;;;35.83;33.77;;;3.70;1.00;;;;;;5016530;28;20175;-71
2021/01/05 10:28:28;;;;;;;30.77;28.93;;;3.70;1.00;;;;;;5017418;28;20220;-71
2021/01/05 10:30:54;;;;;;;34.00;31.80;;;3.70;1.00;;;;;;5017581;28;20187;-71
2021/01/05 10:33:20;;;;;;;34.50;32.47;;;3.70;1.00;;;;;;5017747;28;20198;-71
2021/01/05 10:35:46;;;;;;;33.07;30.87;;;3.80;1.00;;;;;;5017441;28;20190;-70
2021/01/05 10:38:12;;;;;;;36.65;34.55;;;3.80;1.00;;;;;;5017303;28;20225;-70
2021/01/05 10:40:37;;;;;;;39.67;37.47;;;3.70;1.00;;;;;;5017839;28;20639;-71
2021/01/05 10:43:03;;;;;;;33.93;31.93;;;3.70;1.00;;;;;;5017107;28;20203;-70
2021/01/05 10:45:29;;;;;;;34.53;32.63;;;3.70;1.00;;;;;;5017061;28;20305;-71
2021/01/05 10:47:55;;;;;;;32.23;30.30;;;3.70;1.00;;;;;;5016947;28;20206;-71
2021/01/05 10:50:23;;;;;;;33.10;31.10;;;3.70;1.00;;;;;;5016991;28;20406;-70
2021/01/05 10:52:50;;;;;;;31.33;28.95;;;3.70;1.00;;;;;;5017488;28;20468;-71
2021/01/05 10:55:17;;;;;;;33.60;31.45;;;3.80;1.00;;;;;;5017517;28;20183;-71
2021/01/05 10:57:43;;;;;;;40.95;38.75;;;3.90;1.00;;;;;;5016770;28;20215;-71
2021/01/05 11:00:10;;;;;;;31.23;29.10;;;3.90;1.00;;;;;;5017010;28;20257;-71
2021/01/05 11:02:35;;;;;;;29.55;27.55;;;3.90;1.00;;;;;;5015587;28;20658;-71
2021/01/05 11:05:01;;;;;;;30.00;28.00;;;3.90;1.00;;;;;;5017193;28;20203;-71
2021/01/05 11:07:27;;;;;;;30.30;28.50;;;4.00;1.00;;;;;;5016323;28;20606;-71
2021/01/05 11:09:52;;;;;;;28.87;27.07;;;4.00;1.00;;;;;;5016040;28;20414;-71
2021/01/05 11:12:25;;;;;;;28.90;27.10;;;4.10;1.00;;;;;;5016849;28;20617;-71
2021/01/05 11:14:51;;;;;;;29.73;27.92;;;4.10;1.00;;;;;;5016817;28;20167;-71
2021/01/05 11:17:16;;;;;;;23.93;21.27;;;4.10;1.00;;;;;;5016524;28;20282;-71
2021/01/05 11:19:42;;;;;;;31.53;29.63;;;4.10;1.00;;;;;;5017007;28;20179;-71
2021/01/05 11:22:10;;;;;;;28.83;26.83;;;4.20;1.00;;;;;;5016944;28;20201;-71
2021/01/05 11:24:37;;;;;;;38.22;36.08;;;4.10;1.00;;;;;;5016846;28;20422;-71
2021/01/05 11:27:05;;;;;;;29.63;27.67;;;4.20;1.00;;;;;;5016191;28;20175;-71
2021/01/05 11:29:31;;;;;;;27.48;25.48;;;4.20;1.00;;;;;;5015421;28;20178;-71
2021/01/05 11:31:58;;;;;;;31.90;30.00;;;4.20;1.00;;;;;;5016759;28;20262;-71
2021/01/05 11:34:24;;;;;;;28.52;26.27;;;4.30;1.00;;;;;;5016766;28;20298;-71
2021/01/05 11:36:50;;;;;;;28.43;26.60;;;4.30;1.00;;;;;;5016079;28;20710;-71
2021/01/05 11:39:16;;;;;;;28.77;26.47;;;4.30;1.00;;;;;;5015074;28;20441;-71
2021/01/05 11:41:45;;;;;;;34.20;32.20;;;4.40;1.00;;;;;;5016351;28;20421;-71
2021/01/05 11:44:12;;;;;;;27.88;25.98;;;4.40;1.00;;;;;;5015077;28;20453;-71
2021/01/05 11:46:37;;;;;;;25.83;23.83;;;4.40;1.00;;;;;;5015608;28;20526;-70
2021/01/05 11:49:03;;;;;;;25.53;23.83;;;4.50;1.00;;;;;;5016525;28;20277;-70
2021/01/05 11:51:32;;;;;;;26.27;24.73;;;4.50;1.00;;;;;;5016548;28;20167;-70
2021/01/05 11:53:58;;;;;;;21.55;20.13;;;4.50;1.00;;;;;;5016123;28;20175;-70
2021/01/05 11:56:34;;;;;;;27.40;25.50;;;4.50;1.00;;;;;;5015824;28;20649;-70
2021/01/05 11:59:00;;;;;;;21.42;19.90;;;4.40;1.00;;;;;;5016206;28;20424;-70
2021/01/05 12:01:27;;;;;;;22.40;21.07;;;4.40;1.00;;;;;;5016129;28;20262;-70
2021/01/05 12:03:52;;;;;;;27.98;26.20;;;4.40;1.00;;;;;;5016015;28;20246;-70
2021/01/05 12:06:23;;;;;;;23.77;22.13;;;4.40;1.00;;;;;;5015499;28;20591;-70
2021/01/05 12:08:51;;;;;;;20.85;19.45;;;4.30;1.00;;;;;;5015681;28;20285;-70
2021/01/05 12:11:35;;;;;;;26.63;24.98;;;4.30;1.00;;;;;;5014550;28;20175;-70
2021/01/05 12:14:03;;;;;;;26.63;25.33;;;4.40;1.00;;;;;;5016017;28;20178;-70
2021/01/05 12:16:32;;;;;;;21.75;20.75;;;4.30;1.00;;;;;;5015604;28;20186;-71
2021/01/05 12:18:59;;;;;;;21.88;20.45;;;4.30;1.00;;;;;;5015403;28;20202;-70
2021/01/05 12:21:30;;;;;;;17.90;16.90;;;4.30;1.00;;;;;;5015484;28;20733;-70
2021/01/05 12:23:56;;;;;;;20.73;19.60;;;4.30;1.00;;;;;;5015615;28;20183;-69
2021/01/05 12:26:26;;;;;;;16.75;15.75;;;4.30;1.00;;;;;;5015159;28;20672;-69
2021/01/05 12:28:53;;;;;;;26.63;25.08;;;4.20;1.00;;;;;;5015000;28;20215;-70
2021/01/05 12:31:18;;;;;;;20.08;19.05;;;4.20;1.00;;;;;;5015360;28;20179;-70
2021/01/05 12:33:44;;;;;;;19.70;18.70;;;4.20;1.00;;;;;;5015236;28;20175;-70
2021/01/05 12:36:10;;;;;;;25.47;24.37;;;4.30;1.00;;;;;;5014811;28;20264;-70
2021/01/05 12:38:35;;;;;;;18.60;17.83;;;4.30;1.00;;;;;;5015390;28;20676;-69
2021/01/05 12:41:04;;;;;;;16.73;15.73;;;4.30;1.00;;;;;;5015000;28;20410;-69
2021/01/05 12:43:29;;;;;;;20.15;19.23;;;4.40;1.00;;;;;;5015430;28;20199;-70
2021/01/05 12:45:56;;;;;;;20.58;19.58;;;4.30;1.00;;;;;;5014679;28;20666;-70
2021/01/05 12:48:22;;;;;;;18.10;17.30;;;4.20;1.00;;;;;;5014947;28;20222;-70
2021/01/05 12:50:48;;;;;;;18.57;17.70;;;4.30;1.00;;;;;;5013832;28;20199;-70
2021/01/05 12:53:14;;;;;;;20.83;19.83;;;4.30;1.00;;;;;;5015155;28;20234;-70
2021/01/05 12:55:39;;;;;;;23.30;22.30;;;4.40;1.00;;;;;;5013753;28;20175;-70
2021/01/05 12:58:05;;;;;;;23.77;22.77;;;4.40;1.00;;;;;;5015236;28;20544;-70
2021/01/05 13:00:31;;;;;;;21.20;20.20;;;4.30;1.00;;;;;;5014695;28;20179;-70
2021/01/05 13:02:57;;;;;;;25.97;24.97;;;4.30;1.00;;;;;;5014747;28;20310;-70
2021/01/05 13:05:22;;;;;;;20.03;19.03;;;4.40;1.00;;;;;;5014853;28;20413;-69